EGFF

Cardiff International Airport

Cardiff, United Kingdom
METAR EGFF 131020Z AUTO 10018KT 9999 BKN025 05/02 Q1013
Observed Flight Rules
Dec-13 @ 10:20 UTC (30 minutes ago) Marginal Visual Flight Rules
Wind Visibility Clouds
100° at 18 knots 10,000+ meters
  • Broken at 2,500' AGL
Temperatures Readings
Current 5°C / 41°F
Dewpoint 2°C / 36°F
Humidity 81%
Altimeter 29.91" Hg
Pressure 1013 hPa
Elevation 67
METAR EGFF 131020Z AUTO 10018KT 9999 BKN025 05/02 Q1013
Observed Flight Rules
Dec-13 @ 10:20 UTC
(30 minutes ago)
MVFR
Wind Visibility
100° at 18 knots 10,000+ meters
Clouds
  • Broken at 2,500' AGL
Temperature Dewpoint
5°C / 41°F 2°C / 36°F
Humidity Altimeter Pressure
81% 29.91" Hg 1013 hPa